createdAt,value
2022-08-09T00:02:13.180Z,15.56
2022-08-09T00:06:19.204Z,15.44
2022-08-09T00:08:31.510Z,15.44
2022-08-09T00:11:24.950Z,15.38
2022-08-09T00:14:17.271Z,15.38
2022-08-09T00:17:10.196Z,15.38
2022-08-09T00:20:18.343Z,15.31
2022-08-09T00:23:08.359Z,15.31
2022-08-09T00:26:14.846Z,15.25
2022-08-09T00:29:03.776Z,15.25
2022-08-09T00:32:01.123Z,15.25
2022-08-09T00:34:52.212Z,15.25
2022-08-09T00:37:40.544Z,15.25
2022-08-09T00:40:31.201Z,15.25
2022-08-09T00:44:15.310Z,15.25
2022-08-09T00:46:57.782Z,15.25
2022-08-09T00:49:38.492Z,15.25
2022-08-09T00:52:31.173Z,15.25
2022-08-09T00:56:04.206Z,15.25
2022-08-09T00:58:36.119Z,15.31
2022-08-09T01:01:44.737Z,15.31
2022-08-09T01:05:13.990Z,15.31
2022-08-09T01:08:51.447Z,15.31
2022-08-09T01:11:55.752Z,15.31
2022-08-09T01:15:06.006Z,15.31
2022-08-09T01:18:10.517Z,15.38
2022-08-09T01:22:05.528Z,15.38
2022-08-09T01:25:28.135Z,15.38
2022-08-09T01:28:17.139Z,15.38
2022-08-09T01:31:11.859Z,15.38
2022-08-09T01:34:22.894Z,15.38
2022-08-09T01:37:15.359Z,15.38
2022-08-09T01:40:12.176Z,15.31
2022-08-09T01:43:12.698Z,15.25
2022-08-09T01:46:01.903Z,15.25
2022-08-09T01:48:53.256Z,15.19
2022-08-09T01:51:54.427Z,15.19
2022-08-09T01:54:49.298Z,15.19
2022-08-09T01:57:46.241Z,15.19
2022-08-09T02:00:46.208Z,15.19
2022-08-09T02:03:43.041Z,15.19
2022-08-09T02:06:58.397Z,15.19
2022-08-09T02:10:01.192Z,15.25
2022-08-09T02:12:56.256Z,15.19
2022-08-09T02:15:50.705Z,15.19
2022-08-09T02:18:42.731Z,15.25
2022-08-09T02:21:39.524Z,15.25
2022-08-09T02:24:37.971Z,15.25
2022-08-09T02:27:57.967Z,15.25
2022-08-09T02:30:53.026Z,15.25
2022-08-09T02:34:06.480Z,15.25
2022-08-09T02:36:59.435Z,15.25
2022-08-09T02:40:01.775Z,15.25
2022-08-09T02:42:53.819Z,15.25
2022-08-09T02:45:45.431Z,15.19
2022-08-09T02:48:39.418Z,15.19
2022-08-09T02:51:42.979Z,15.13
2022-08-09T02:54:33.429Z,15.13
2022-08-09T02:57:25.506Z,15.13
2022-08-09T03:00:25.397Z,15.06
2022-08-09T03:03:21.352Z,15.06
2022-08-09T03:06:14.780Z,15.00
2022-08-09T03:09:04.287Z,15.00
2022-08-09T03:12:10.506Z,14.94
2022-08-09T03:15:00.843Z,14.88
2022-08-09T03:17:57.886Z,14.88
2022-08-09T03:20:48.714Z,14.81
2022-08-09T03:23:38.367Z,14.75
2022-08-09T03:26:30.883Z,14.63
2022-08-09T03:29:22.733Z,14.63
2022-08-09T03:32:12.537Z,14.50
2022-08-09T03:35:01.086Z,14.44
2022-08-09T03:37:56.127Z,14.44
2022-08-09T03:40:46.571Z,14.44
2022-08-09T03:43:34.566Z,14.50
2022-08-09T03:46:27.484Z,14.56
2022-08-09T03:49:19.185Z,14.69
2022-08-09T03:52:11.330Z,14.81
2022-08-09T03:55:03.918Z,14.94
2022-08-09T03:58:06.621Z,15.06
2022-08-09T04:01:04.446Z,15.19
2022-08-09T04:04:02.308Z,15.31
2022-08-09T04:06:53.031Z,15.44
2022-08-09T04:09:44.432Z,15.50
2022-08-09T04:12:50.821Z,15.63
2022-08-09T04:16:17.823Z,15.75
2022-08-09T04:18:47.759Z,15.81
2022-08-09T04:21:40.097Z,15.94
2022-08-09T04:24:30.292Z,16.00
2022-08-09T04:27:22.269Z,16.13
2022-08-09T04:30:16.884Z,16.19
2022-08-09T04:33:04.846Z,16.31
2022-08-09T04:35:56.014Z,16.44
2022-08-09T04:38:44.479Z,16.50
2022-08-09T04:41:33.906Z,16.69
2022-08-09T04:44:31.867Z,16.88
2022-08-09T04:47:22.836Z,17.00
2022-08-09T04:50:10.976Z,17.13
2022-08-09T04:52:59.428Z,17.19
2022-08-09T04:55:58.883Z,17.25
2022-08-09T04:58:48.553Z,17.38
2022-08-09T05:01:39.051Z,17.50
2022-08-09T05:04:30.734Z,17.63
2022-08-09T05:07:20.168Z,17.81
2022-08-09T05:10:09.321Z,17.94
2022-08-09T05:12:58.025Z,18.06
2022-08-09T05:15:52.306Z,18.31
2022-08-09T05:18:58.813Z,18.56
2022-08-09T05:21:55.304Z,18.94
2022-08-09T05:24:43.502Z,19.25
2022-08-09T05:27:44.373Z,19.56
2022-08-09T05:30:34.726Z,19.81
2022-08-09T05:33:26.546Z,20.13
2022-08-09T05:36:21.247Z,20.44
2022-08-09T05:39:28.452Z,20.88
2022-08-09T05:42:21.908Z,21.44
2022-08-09T05:45:16.291Z,22.25
2022-08-09T05:48:05.243Z,23.19
2022-08-09T05:51:16.623Z,24.00
2022-08-09T05:54:05.542Z,24.69
2022-08-09T05:56:54.821Z,25.50
2022-08-09T05:59:43.439Z,28.13
2022-08-09T06:02:33.269Z,30.19
2022-08-09T06:05:31.351Z,30.06
2022-08-09T06:08:31.242Z,28.75
2022-08-09T06:11:18.818Z,30.19
2022-08-09T06:14:12.715Z,30.31
2022-08-09T06:17:00.613Z,29.38
2022-08-09T06:19:56.981Z,28.38
2022-08-09T06:22:45.665Z,28.81
2022-08-09T06:25:34.594Z,30.50
2022-08-09T06:28:27.413Z,31.44
2022-08-09T06:31:30.765Z,32.69
2022-08-09T06:34:20.277Z,33.50
2022-08-09T06:37:11.094Z,34.06
2022-08-09T06:40:01.300Z,34.63
2022-08-09T06:42:58.706Z,33.06
2022-08-09T06:46:06.450Z,34.19
2022-08-09T06:48:59.687Z,36.06
2022-08-09T06:51:48.573Z,37.25
2022-08-09T06:54:37.001Z,38.44
2022-08-09T06:58:02.231Z,39.06
2022-08-09T07:00:49.542Z,39.88
2022-08-09T07:03:52.605Z,40.69
2022-08-09T07:06:42.211Z,41.63
2022-08-09T07:09:54.165Z,42.00
2022-08-09T07:12:41.311Z,37.19
2022-08-09T07:16:36.260Z,33.81
2022-08-09T07:18:38.642Z,32.56
2022-08-09T07:21:27.013Z,35.69
2022-08-09T07:24:18.991Z,37.06
2022-08-09T07:27:27.395Z,38.13
2022-08-09T07:30:21.725Z,43.50
2022-08-09T07:33:16.548Z,43.13
2022-08-09T07:36:05.270Z,37.31
2022-08-09T07:39:00.785Z,32.63
2022-08-09T07:41:50.391Z,30.44
2022-08-09T07:44:50.946Z,29.44
2022-08-09T07:47:49.662Z,29.00
2022-08-09T07:50:52.848Z,30.63
2022-08-09T07:54:06.976Z,31.44
2022-08-09T07:56:50.121Z,41.44
2022-08-09T07:59:45.790Z,44.38
2022-08-09T08:02:42.829Z,40.38
2022-08-09T08:05:39.094Z,36.44
2022-08-09T08:09:01.830Z,41.06
2022-08-09T08:12:10.953Z,39.50
2022-08-09T08:14:56.141Z,38.31
2022-08-09T08:17:57.993Z,39.50
2022-08-09T08:20:46.906Z,38.56
2022-08-09T08:23:35.513Z,38.19
2022-08-09T08:26:26.533Z,34.31
2022-08-09T08:29:39.595Z,40.06
2022-08-09T08:32:33.631Z,45.56
2022-08-09T08:35:22.909Z,50.88
2022-08-09T08:38:11.616Z,52.19
2022-08-09T08:41:06.246Z,45.63
2022-08-09T08:43:55.703Z,45.31
2022-08-09T08:47:02.988Z,40.13
2022-08-09T08:49:56.514Z,37.31
2022-08-09T08:52:57.683Z,33.94
2022-08-09T08:55:48.538Z,31.94
2022-08-09T08:58:37.643Z,30.75
2022-08-09T09:01:35.665Z,31.38
2022-08-09T09:04:47.535Z,35.94
2022-08-09T09:07:44.970Z,33.88
2022-08-09T09:10:34.627Z,44.06
2022-08-09T09:13:24.845Z,51.94
2022-08-09T09:16:35.105Z,56.88
2022-08-09T09:19:40.324Z,58.69
2022-08-09T09:22:29.636Z,58.19
2022-08-09T09:26:04.994Z,57.81
2022-08-09T09:29:03.440Z,59.38
2022-08-09T09:32:06.892Z,58.63
2022-08-09T09:35:09.899Z,58.56
2022-08-09T09:37:59.226Z,59.44
2022-08-09T09:40:50.577Z,59.13
2022-08-09T09:43:41.261Z,58.81
2022-08-09T09:46:42.907Z,57.69
2022-08-09T09:50:14.613Z,59.00
2022-08-09T09:52:56.144Z,57.56
2022-08-09T09:56:05.584Z,56.75
2022-08-09T09:58:53.574Z,57.88
2022-08-09T10:01:47.310Z,58.63
2022-08-09T10:04:35.943Z,57.00
2022-08-09T10:07:30.132Z,57.69
2022-08-09T10:10:31.629Z,57.38
2022-08-09T10:13:42.910Z,56.94
2022-08-09T10:16:57.723Z,57.50
2022-08-09T10:19:39.880Z,57.19
2022-08-09T10:22:37.253Z,58.44
2022-08-09T10:25:34.756Z,59.13
2022-08-09T10:28:38.259Z,60.31
2022-08-09T10:34:35.988Z,55.88
2022-08-09T10:37:25.559Z,59.25
2022-08-09T10:40:34.667Z,56.00
2022-08-09T10:43:24.170Z,54.25
2022-08-09T10:46:52.351Z,53.13
2022-08-09T10:49:51.390Z,50.94
2022-08-09T10:53:04.408Z,45.75
2022-08-09T10:56:30.868Z,40.13
2022-08-09T10:59:31.329Z,40.31
2022-08-09T11:03:14.173Z,44.25
2022-08-09T11:06:19.369Z,48.19
2022-08-09T11:09:15.884Z,50.81
2022-08-09T11:12:29.787Z,54.94
2022-08-09T11:15:33.974Z,56.19
2022-08-09T11:18:44.999Z,55.88
2022-08-09T11:21:57.055Z,56.69
2022-08-09T11:25:14.570Z,55.69
2022-08-09T11:28:34.669Z,52.81
2022-08-09T11:31:39.658Z,52.38
2022-08-09T11:34:52.386Z,52.50
2022-08-09T11:37:43.284Z,52.19
2022-08-09T11:40:38.150Z,51.50
2022-08-09T11:43:27.032Z,49.44
2022-08-09T11:46:33.370Z,47.75
2022-08-09T11:50:53.143Z,45.38
2022-08-09T11:53:21.434Z,39.00
2022-08-09T11:56:20.994Z,34.69
2022-08-09T11:59:30.539Z,32.25
2022-08-09T12:02:37.127Z,30.63
2022-08-09T12:05:39.572Z,29.31
2022-08-09T12:08:30.486Z,29.13
2022-08-09T12:11:23.539Z,29.13
2022-08-09T12:14:18.010Z,29.00
2022-08-09T12:17:34.676Z,29.06
2022-08-09T12:20:27.595Z,28.94
2022-08-09T12:23:15.854Z,29.44
2022-08-09T12:26:19.712Z,29.25
2022-08-09T12:29:33.090Z,28.94
2022-08-09T12:32:27.383Z,28.38
2022-08-09T12:35:19.359Z,28.06
2022-08-09T12:38:37.999Z,27.50
2022-08-09T12:41:38.913Z,27.56
2022-08-09T12:44:28.729Z,26.94
2022-08-09T12:47:25.719Z,27.06
2022-08-09T12:50:24.871Z,27.00
2022-08-09T12:53:44.802Z,26.63
2022-08-09T12:56:44.147Z,26.25
2022-08-09T12:59:40.099Z,26.13
2022-08-09T13:02:56.545Z,26.00
2022-08-09T13:05:51.677Z,25.63
2022-08-09T13:09:14.014Z,25.56
2022-08-09T13:12:05.766Z,25.44
2022-08-09T13:15:07.918Z,25.31
2022-08-09T13:18:09.653Z,25.38
2022-08-09T13:22:37.482Z,25.31
2022-08-09T13:24:48.356Z,25.06
2022-08-09T13:27:48.709Z,24.88
2022-08-09T13:32:18.119Z,25.25
2022-08-09T13:34:10.318Z,25.38
2022-08-09T13:37:06.239Z,25.75
2022-08-09T13:41:56.662Z,25.63
2022-08-09T13:43:09.546Z,25.56
2022-08-09T13:46:43.689Z,25.88
2022-08-09T13:49:06.051Z,25.94
2022-08-09T13:52:09.265Z,25.81
2022-08-09T13:54:59.974Z,25.94
2022-08-09T13:57:56.091Z,25.69
2022-08-09T14:00:52.970Z,25.38
2022-08-09T14:04:03.923Z,25.00
2022-08-09T14:07:03.552Z,24.69
2022-08-09T14:09:53.351Z,24.13
2022-08-09T14:12:43.446Z,23.88
2022-08-09T14:16:10.171Z,23.75
2022-08-09T14:18:45.298Z,23.50
2022-08-09T14:21:37.122Z,23.44
2022-08-09T14:24:32.015Z,23.31
2022-08-09T14:27:20.902Z,23.44
2022-08-09T14:30:37.205Z,23.25
2022-08-09T14:33:21.075Z,22.94
2022-08-09T14:36:20.329Z,22.75
2022-08-09T14:39:12.341Z,22.50
2022-08-09T14:42:00.207Z,22.69
2022-08-09T14:45:00.276Z,22.81
2022-08-09T14:47:57.067Z,22.88
2022-08-09T14:50:47.897Z,22.88
2022-08-09T14:53:39.892Z,22.94
2022-08-09T14:56:33.747Z,22.94
2022-08-09T14:59:22.004Z,22.94
2022-08-09T15:02:09.983Z,22.69
2022-08-09T15:05:01.168Z,22.69
2022-08-09T15:07:56.661Z,22.88
2022-08-09T15:11:00.313Z,22.94
2022-08-09T15:14:01.680Z,22.94
2022-08-09T15:16:52.802Z,22.94
2022-08-09T15:19:59.901Z,22.94
2022-08-09T15:22:50.091Z,22.88
2022-08-09T15:25:51.150Z,22.88
2022-08-09T15:28:41.984Z,22.44
2022-08-09T15:31:41.771Z,22.56
2022-08-09T15:34:34.524Z,22.38
2022-08-09T15:37:36.981Z,22.06
2022-08-09T15:40:32.238Z,22.44
2022-08-09T15:43:36.770Z,22.50
2022-08-09T15:46:32.884Z,22.50
2022-08-09T15:49:24.023Z,22.44
2022-08-09T15:52:13.847Z,22.50
2022-08-09T15:55:06.378Z,22.38
2022-08-09T15:57:54.586Z,22.56
2022-08-09T16:00:42.577Z,22.56
2022-08-09T16:03:38.548Z,22.56
2022-08-09T16:06:37.388Z,22.25
2022-08-09T16:09:32.544Z,22.13
2022-08-09T16:12:35.144Z,22.00
2022-08-09T16:16:12.274Z,21.75
2022-08-09T16:18:34.300Z,21.88
2022-08-09T16:21:25.711Z,21.81
2022-08-09T16:24:30.215Z,21.75
2022-08-09T16:27:22.675Z,21.56
2022-08-09T16:30:15.228Z,21.50
2022-08-09T16:33:15.715Z,21.50
2022-08-09T16:36:11.762Z,21.44
2022-08-09T16:39:05.595Z,21.38
2022-08-09T16:42:04.134Z,21.31
2022-08-09T16:44:52.724Z,21.31
2022-08-09T16:48:42.959Z,21.19
2022-08-09T16:50:58.677Z,21.25
2022-08-09T16:54:24.908Z,21.38
2022-08-09T16:56:56.532Z,21.31
2022-08-09T16:59:50.335Z,21.13
2022-08-09T17:02:47.211Z,20.81
2022-08-09T17:06:08.775Z,20.69
2022-08-09T17:09:03.009Z,20.50
2022-08-09T17:11:53.344Z,20.38
2022-08-09T17:14:46.403Z,20.25
2022-08-09T17:17:50.736Z,20.00
2022-08-09T17:20:46.663Z,19.88
2022-08-09T17:24:20.890Z,19.75
2022-08-09T17:26:53.514Z,19.69
2022-08-09T17:29:45.573Z,19.56
2022-08-09T17:32:37.870Z,19.38
2022-08-09T17:35:26.399Z,19.19
2022-08-09T17:38:33.967Z,19.06
2022-08-09T17:41:38.751Z,18.88
2022-08-09T17:44:42.350Z,18.75
2022-08-09T17:47:49.913Z,18.69
2022-08-09T17:50:55.794Z,18.63
2022-08-09T17:53:52.079Z,18.50
2022-08-09T17:56:42.545Z,18.38
2022-08-09T17:59:38.146Z,18.25
2022-08-09T18:02:33.104Z,18.19
2022-08-09T18:05:22.426Z,18.13
2022-08-09T18:08:18.167Z,17.94
2022-08-09T18:11:10.256Z,17.81
2022-08-09T18:14:13.364Z,17.75
2022-08-09T18:17:03.547Z,17.63
2022-08-09T18:21:00.195Z,17.56
2022-08-09T18:23:05.274Z,17.44
2022-08-09T18:25:57.759Z,17.31
2022-08-09T18:30:42.421Z,17.19
2022-08-09T18:31:56.582Z,17.13
2022-08-09T18:34:48.517Z,17.06
2022-08-09T18:37:47.869Z,16.94
2022-08-09T18:40:46.392Z,16.81
2022-08-09T18:43:34.994Z,16.81
2022-08-09T18:46:47.765Z,16.69
2022-08-09T18:49:46.439Z,16.63
2022-08-09T18:52:35.737Z,16.63
2022-08-09T18:55:45.651Z,16.56
2022-08-09T18:58:34.640Z,16.50
2022-08-09T19:01:27.116Z,16.38
2022-08-09T19:04:15.166Z,16.38
2022-08-09T19:07:05.356Z,16.31
2022-08-09T19:10:14.639Z,16.19
2022-08-09T19:13:20.665Z,16.06
2022-08-09T19:16:20.844Z,15.94
2022-08-09T19:19:25.129Z,15.81
2022-08-09T19:22:17.566Z,15.69
2022-08-09T19:25:42.713Z,15.63
2022-08-09T19:28:16.160Z,15.56
2022-08-09T19:31:04.117Z,15.50
2022-08-09T19:33:57.031Z,15.50
2022-08-09T19:36:46.521Z,15.44
2022-08-09T19:40:02.417Z,15.38
2022-08-09T19:42:44.338Z,15.31
2022-08-09T19:45:40.240Z,15.19
2022-08-09T19:49:02.581Z,15.06
2022-08-09T19:51:40.309Z,15.00
2022-08-09T19:54:36.914Z,14.94
2022-08-09T19:57:25.797Z,14.94
2022-08-09T20:00:15.754Z,14.81
2022-08-09T20:04:17.413Z,14.88
2022-08-09T20:06:23.641Z,14.81
2022-08-09T20:09:44.510Z,14.81
2022-08-09T20:12:29.854Z,14.75
2022-08-09T20:16:35.864Z,14.69
2022-08-09T20:18:33.912Z,14.63
2022-08-09T20:21:40.785Z,14.56
2022-08-09T20:24:34.441Z,14.56
2022-08-09T20:27:29.348Z,14.50
2022-08-09T20:30:21.825Z,14.38
2022-08-09T20:33:15.630Z,14.44
2022-08-09T20:36:05.383Z,14.38
2022-08-09T20:39:28.805Z,14.31
2022-08-09T20:42:07.629Z,14.31
2022-08-09T20:45:56.529Z,14.25
2022-08-09T20:48:11.072Z,14.13
2022-08-09T20:51:01.006Z,14.06
2022-08-09T20:53:49.672Z,14.06
2022-08-09T20:56:37.769Z,14.06
2022-08-09T21:00:20.932Z,14.00
2022-08-09T21:02:38.803Z,13.94
2022-08-09T21:05:51.830Z,13.88
2022-08-09T21:08:37.958Z,13.88
2022-08-09T21:14:39.761Z,13.81
2022-08-09T21:18:29.840Z,13.75
2022-08-09T21:20:38.636Z,13.69
2022-08-09T21:23:47.769Z,13.69
2022-08-09T21:26:34.817Z,13.63
2022-08-09T21:29:23.498Z,13.56
2022-08-09T21:32:18.621Z,13.50
2022-08-09T21:35:08.013Z,13.50
2022-08-09T21:37:58.977Z,13.50
2022-08-09T21:40:50.438Z,13.44
2022-08-09T21:43:56.503Z,13.38
2022-08-09T21:46:47.819Z,13.31
2022-08-09T21:49:42.620Z,13.31
2022-08-09T21:52:33.885Z,13.31
2022-08-09T21:55:29.737Z,13.31
2022-08-09T21:58:29.124Z,13.19
2022-08-09T22:01:26.146Z,13.19
2022-08-09T22:04:55.281Z,13.13
2022-08-09T22:07:52.215Z,13.13
2022-08-09T22:11:50.098Z,13.13
2022-08-09T22:13:55.842Z,13.13
2022-08-09T22:16:46.948Z,13.06
2022-08-09T22:19:58.104Z,13.06
2022-08-09T22:22:45.454Z,13.06
2022-08-09T22:26:06.308Z,13.00
2022-08-09T22:28:55.805Z,13.00
2022-08-09T22:31:56.231Z,12.94
2022-08-09T22:34:59.078Z,12.94
2022-08-09T22:38:07.216Z,12.88
2022-08-09T22:41:03.986Z,12.94
2022-08-09T22:44:02.336Z,12.94
2022-08-09T22:48:15.374Z,13.00
2022-08-09T22:50:08.857Z,12.94
2022-08-09T22:52:58.939Z,13.00
2022-08-09T22:56:30.893Z,13.00
2022-08-09T22:58:54.724Z,12.94
2022-08-09T23:01:45.685Z,12.94
2022-08-09T23:04:33.779Z,12.88
2022-08-09T23:08:27.692Z,12.94
2022-08-09T23:10:53.584Z,12.88
2022-08-09T23:13:53.703Z,12.88
2022-08-09T23:16:42.054Z,12.88
2022-08-09T23:19:29.890Z,12.81
2022-08-09T23:22:38.104Z,12.81
2022-08-09T23:25:25.942Z,12.81
2022-08-09T23:28:15.429Z,12.81
2022-08-09T23:31:04.424Z,12.81
2022-08-09T23:33:52.419Z,12.81
2022-08-09T23:36:40.356Z,12.75
2022-08-09T23:39:28.261Z,12.75
2022-08-09T23:42:16.890Z,12.75
2022-08-09T23:45:05.914Z,12.75
2022-08-09T23:47:57.027Z,12.81
2022-08-09T23:50:45.179Z,12.81
2022-08-09T23:53:35.256Z,12.81
2022-08-09T23:56:52.809Z,12.81
2022-08-09T23:59:52.412Z,12.69
